sensor_id;sensor_type;location;lat;lon;timestamp;P1;durP1;ratioP1;P2;durP2;ratioP2
8540;SDS011;4308;51.294;6.590;2023-03-03T00:01:34;71.80;;;30.70;;
8540;SDS011;4308;51.294;6.590;2023-03-03T00:04:02;92.23;;;36.40;;
8540;SDS011;4308;51.294;6.590;2023-03-03T00:06:29;71.07;;;30.57;;
8540;SDS011;4308;51.294;6.590;2023-03-03T00:08:57;69.40;;;28.63;;
8540;SDS011;4308;51.294;6.590;2023-03-03T00:11:24;67.03;;;30.33;;
8540;SDS011;4308;51.294;6.590;2023-03-03T00:13:53;61.33;;;26.77;;
8540;SDS011;4308;51.294;6.590;2023-03-03T00:18:56;70.53;;;32.27;;
8540;SDS011;4308;51.294;6.590;2023-03-03T00:21:34;65.83;;;28.77;;
8540;SDS011;4308;51.294;6.590;2023-03-03T00:27:27;74.13;;;30.20;;
8540;SDS011;4308;51.294;6.590;2023-03-03T00:29:57;78.97;;;30.60;;
8540;SDS011;4308;51.294;6.590;2023-03-03T00:32:35;84.63;;;34.33;;
8540;SDS011;4308;51.294;6.590;2023-03-03T00:35:18;69.17;;;32.80;;
8540;SDS011;4308;51.294;6.590;2023-03-03T00:37:58;71.73;;;31.33;;
8540;SDS011;4308;51.294;6.590;2023-03-03T00:40:34;90.07;;;36.03;;
8540;SDS011;4308;51.294;6.590;2023-03-03T00:43:11;85.17;;;30.83;;
8540;SDS011;4308;51.294;6.590;2023-03-03T00:45:43;74.93;;;27.07;;
8540;SDS011;4308;51.294;6.590;2023-03-03T00:50:48;83.83;;;33.93;;
8540;SDS011;4308;51.294;6.590;2023-03-03T00:53:16;78.80;;;31.40;;
8540;SDS011;4308;51.294;6.590;2023-03-03T00:55:45;55.37;;;23.93;;
8540;SDS011;4308;51.294;6.590;2023-03-03T00:58:13;71.70;;;29.80;;
8540;SDS011;4308;51.294;6.590;2023-03-03T01:00:41;76.20;;;32.77;;
8540;SDS011;4308;51.294;6.590;2023-03-03T01:03:12;96.30;;;38.63;;
8540;SDS011;4308;51.294;6.590;2023-03-03T01:05:41;84.30;;;36.13;;
8540;SDS011;4308;51.294;6.590;2023-03-03T01:08:08;79.27;;;33.80;;
8540;SDS011;4308;51.294;6.590;2023-03-03T01:10:38;82.17;;;31.40;;
8540;SDS011;4308;51.294;6.590;2023-03-03T01:13:07;73.57;;;29.57;;
8540;SDS011;4308;51.294;6.590;2023-03-03T01:15:34;110.37;;;43.33;;
8540;SDS011;4308;51.294;6.590;2023-03-03T01:18:02;111.07;;;41.53;;
8540;SDS011;4308;51.294;6.590;2023-03-03T01:20:30;77.73;;;29.80;;
8540;SDS011;4308;51.294;6.590;2023-03-03T01:22:58;66.93;;;28.87;;
8540;SDS011;4308;51.294;6.590;2023-03-03T01:25:25;94.70;;;38.43;;
8540;SDS011;4308;51.294;6.590;2023-03-03T01:27:53;82.70;;;33.53;;
8540;SDS011;4308;51.294;6.590;2023-03-03T01:30:21;96.57;;;37.30;;
8540;SDS011;4308;51.294;6.590;2023-03-03T01:32:48;87.27;;;32.20;;
8540;SDS011;4308;51.294;6.590;2023-03-03T01:35:16;72.97;;;29.77;;
8540;SDS011;4308;51.294;6.590;2023-03-03T01:37:44;72.73;;;29.07;;
8540;SDS011;4308;51.294;6.590;2023-03-03T01:40:19;71.53;;;28.90;;
8540;SDS011;4308;51.294;6.590;2023-03-03T01:42:47;72.33;;;28.70;;
8540;SDS011;4308;51.294;6.590;2023-03-03T01:47:44;104.10;;;37.60;;
8540;SDS011;4308;51.294;6.590;2023-03-03T01:50:14;100.13;;;40.73;;
8540;SDS011;4308;51.294;6.590;2023-03-03T01:52:44;83.63;;;34.97;;
8540;SDS011;4308;51.294;6.590;2023-03-03T01:55:14;71.73;;;30.03;;
8540;SDS011;4308;51.294;6.590;2023-03-03T01:57:45;73.03;;;28.63;;
8540;SDS011;4308;51.294;6.590;2023-03-03T02:00:14;56.50;;;23.80;;
8540;SDS011;4308;51.294;6.590;2023-03-03T02:02:43;77.93;;;32.60;;
8540;SDS011;4308;51.294;6.590;2023-03-03T02:05:12;82.17;;;35.83;;
8540;SDS011;4308;51.294;6.590;2023-03-03T02:07:41;70.63;;;29.67;;
8540;SDS011;4308;51.294;6.590;2023-03-03T02:10:12;89.40;;;34.67;;
8540;SDS011;4308;51.294;6.590;2023-03-03T02:12:51;86.63;;;37.63;;
8540;SDS011;4308;51.294;6.590;2023-03-03T02:17:47;77.47;;;30.77;;
8540;SDS011;4308;51.294;6.590;2023-03-03T02:20:35;94.03;;;35.13;;
8540;SDS011;4308;51.294;6.590;2023-03-03T02:28:15;68.63;;;27.37;;
8540;SDS011;4308;51.294;6.590;2023-03-03T02:30:43;82.73;;;31.93;;
8540;SDS011;4308;51.294;6.590;2023-03-03T02:33:10;64.03;;;26.40;;
8540;SDS011;4308;51.294;6.590;2023-03-03T02:35:39;88.20;;;35.87;;
8540;SDS011;4308;51.294;6.590;2023-03-03T02:40:42;82.63;;;33.30;;
8540;SDS011;4308;51.294;6.590;2023-03-03T02:43:11;57.00;;;26.13;;
8540;SDS011;4308;51.294;6.590;2023-03-03T02:45:42;85.53;;;33.53;;
8540;SDS011;4308;51.294;6.590;2023-03-03T02:48:10;63.13;;;26.23;;
8540;SDS011;4308;51.294;6.590;2023-03-03T02:50:38;72.70;;;30.50;;
8540;SDS011;4308;51.294;6.590;2023-03-03T02:53:05;78.60;;;31.43;;
8540;SDS011;4308;51.294;6.590;2023-03-03T02:55:33;69.73;;;29.27;;
8540;SDS011;4308;51.294;6.590;2023-03-03T02:58:00;56.03;;;24.70;;
8540;SDS011;4308;51.294;6.590;2023-03-03T03:00:28;70.43;;;28.03;;
8540;SDS011;4308;51.294;6.590;2023-03-03T03:02:55;84.60;;;36.60;;
8540;SDS011;4308;51.294;6.590;2023-03-03T03:05:23;73.03;;;28.30;;
8540;SDS011;4308;51.294;6.590;2023-03-03T03:07:50;63.57;;;27.27;;
8540;SDS011;4308;51.294;6.590;2023-03-03T03:10:18;77.73;;;27.33;;
8540;SDS011;4308;51.294;6.590;2023-03-03T03:12:46;91.53;;;35.90;;
8540;SDS011;4308;51.294;6.590;2023-03-03T03:15:13;92.03;;;34.97;;
8540;SDS011;4308;51.294;6.590;2023-03-03T03:17:41;81.53;;;31.80;;
8540;SDS011;4308;51.294;6.590;2023-03-03T03:20:08;81.67;;;34.33;;
8540;SDS011;4308;51.294;6.590;2023-03-03T03:22:36;50.73;;;24.47;;
8540;SDS011;4308;51.294;6.590;2023-03-03T03:25:04;70.47;;;26.57;;
8540;SDS011;4308;51.294;6.590;2023-03-03T03:27:31;54.70;;;20.67;;
8540;SDS011;4308;51.294;6.590;2023-03-03T03:29:59;65.40;;;28.87;;
8540;SDS011;4308;51.294;6.590;2023-03-03T03:32:26;79.63;;;33.00;;
8540;SDS011;4308;51.294;6.590;2023-03-03T03:34:54;81.20;;;31.93;;
8540;SDS011;4308;51.294;6.590;2023-03-03T03:37:22;81.87;;;30.93;;
8540;SDS011;4308;51.294;6.590;2023-03-03T03:39:49;54.23;;;24.30;;
8540;SDS011;4308;51.294;6.590;2023-03-03T03:42:17;73.53;;;34.47;;
8540;SDS011;4308;51.294;6.590;2023-03-03T03:44:45;87.50;;;34.93;;
8540;SDS011;4308;51.294;6.590;2023-03-03T03:47:12;67.97;;;26.97;;
8540;SDS011;4308;51.294;6.590;2023-03-03T03:49:40;79.33;;;31.90;;
8540;SDS011;4308;51.294;6.590;2023-03-03T03:52:07;65.47;;;26.73;;
8540;SDS011;4308;51.294;6.590;2023-03-03T03:54:35;87.97;;;33.90;;
8540;SDS011;4308;51.294;6.590;2023-03-03T03:57:02;82.10;;;34.97;;
8540;SDS011;4308;51.294;6.590;2023-03-03T03:59:30;77.73;;;29.80;;
8540;SDS011;4308;51.294;6.590;2023-03-03T04:01:57;70.87;;;30.77;;
8540;SDS011;4308;51.294;6.590;2023-03-03T04:04:25;104.13;;;40.67;;
8540;SDS011;4308;51.294;6.590;2023-03-03T04:06:53;80.77;;;31.43;;
8540;SDS011;4308;51.294;6.590;2023-03-03T04:09:20;74.63;;;26.90;;
8540;SDS011;4308;51.294;6.590;2023-03-03T04:11:48;79.93;;;27.50;;
8540;SDS011;4308;51.294;6.590;2023-03-03T04:14:15;85.23;;;32.87;;
8540;SDS011;4308;51.294;6.590;2023-03-03T04:16:43;85.63;;;33.73;;
8540;SDS011;4308;51.294;6.590;2023-03-03T04:19:10;80.63;;;30.13;;
8540;SDS011;4308;51.294;6.590;2023-03-03T04:21:38;69.07;;;27.67;;
8540;SDS011;4308;51.294;6.590;2023-03-03T04:24:06;67.63;;;28.30;;
8540;SDS011;4308;51.294;6.590;2023-03-03T04:26:33;95.13;;;40.80;;
8540;SDS011;4308;51.294;6.590;2023-03-03T04:29:01;83.97;;;30.23;;
8540;SDS011;4308;51.294;6.590;2023-03-03T04:31:28;79.13;;;29.73;;
8540;SDS011;4308;51.294;6.590;2023-03-03T04:33:56;71.13;;;29.23;;
8540;SDS011;4308;51.294;6.590;2023-03-03T04:36:24;83.10;;;33.80;;
8540;SDS011;4308;51.294;6.590;2023-03-03T04:38:51;84.20;;;34.23;;
8540;SDS011;4308;51.294;6.590;2023-03-03T04:41:19;60.57;;;24.23;;
8540;SDS011;4308;51.294;6.590;2023-03-03T04:43:46;79.57;;;27.57;;
8540;SDS011;4308;51.294;6.590;2023-03-03T04:46:14;87.20;;;35.43;;
8540;SDS011;4308;51.294;6.590;2023-03-03T04:48:41;60.70;;;26.27;;
8540;SDS011;4308;51.294;6.590;2023-03-03T04:51:09;56.93;;;22.67;;
8540;SDS011;4308;51.294;6.590;2023-03-03T04:53:37;76.40;;;30.50;;
8540;SDS011;4308;51.294;6.590;2023-03-03T04:56:05;65.77;;;28.83;;
8540;SDS011;4308;51.294;6.590;2023-03-03T04:58:32;62.37;;;26.23;;
8540;SDS011;4308;51.294;6.590;2023-03-03T05:01:00;97.03;;;37.43;;
8540;SDS011;4308;51.294;6.590;2023-03-03T05:03:28;83.63;;;33.33;;
8540;SDS011;4308;51.294;6.590;2023-03-03T05:05:55;89.00;;;34.50;;
8540;SDS011;4308;51.294;6.590;2023-03-03T05:08:23;90.20;;;33.07;;
8540;SDS011;4308;51.294;6.590;2023-03-03T05:10:54;85.00;;;32.23;;
8540;SDS011;4308;51.294;6.590;2023-03-03T05:13:22;90.17;;;35.80;;
8540;SDS011;4308;51.294;6.590;2023-03-03T05:15:50;77.57;;;32.00;;
8540;SDS011;4308;51.294;6.590;2023-03-03T05:18:18;95.10;;;39.60;;
8540;SDS011;4308;51.294;6.590;2023-03-03T05:20:46;110.40;;;42.93;;
8540;SDS011;4308;51.294;6.590;2023-03-03T05:23:13;78.93;;;29.00;;
8540;SDS011;4308;51.294;6.590;2023-03-03T05:25:41;84.73;;;33.77;;
8540;SDS011;4308;51.294;6.590;2023-03-03T05:28:09;89.27;;;30.23;;
8540;SDS011;4308;51.294;6.590;2023-03-03T05:30:37;100.83;;;39.03;;
8540;SDS011;4308;51.294;6.590;2023-03-03T05:33:05;94.67;;;36.17;;
8540;SDS011;4308;51.294;6.590;2023-03-03T05:35:32;73.83;;;29.30;;
8540;SDS011;4308;51.294;6.590;2023-03-03T05:38:00;70.70;;;24.83;;
8540;SDS011;4308;51.294;6.590;2023-03-03T05:40:31;72.57;;;27.60;;
8540;SDS011;4308;51.294;6.590;2023-03-03T05:42:58;86.67;;;32.53;;
8540;SDS011;4308;51.294;6.590;2023-03-03T05:45:26;69.67;;;25.00;;
8540;SDS011;4308;51.294;6.590;2023-03-03T05:47:54;81.00;;;33.20;;
8540;SDS011;4308;51.294;6.590;2023-03-03T05:50:22;70.63;;;29.30;;
8540;SDS011;4308;51.294;6.590;2023-03-03T05:52:50;102.53;;;40.47;;
8540;SDS011;4308;51.294;6.590;2023-03-03T05:55:18;96.30;;;36.43;;
8540;SDS011;4308;51.294;6.590;2023-03-03T05:57:46;53.27;;;23.23;;
8540;SDS011;4308;51.294;6.590;2023-03-03T06:00:13;113.00;;;41.33;;
8540;SDS011;4308;51.294;6.590;2023-03-03T06:02:42;62.47;;;24.87;;
8540;SDS011;4308;51.294;6.590;2023-03-03T06:05:09;91.40;;;33.53;;
8540;SDS011;4308;51.294;6.590;2023-03-03T06:07:37;100.93;;;35.23;;
8540;SDS011;4308;51.294;6.590;2023-03-03T06:10:05;74.40;;;25.63;;
8540;SDS011;4308;51.294;6.590;2023-03-03T06:12:33;89.20;;;32.67;;
8540;SDS011;4308;51.294;6.590;2023-03-03T06:15:01;75.70;;;30.37;;
8540;SDS011;4308;51.294;6.590;2023-03-03T06:17:29;87.47;;;31.53;;
8540;SDS011;4308;51.294;6.590;2023-03-03T06:19:56;65.43;;;23.67;;
8540;SDS011;4308;51.294;6.590;2023-03-03T06:22:24;63.03;;;26.33;;
8540;SDS011;4308;51.294;6.590;2023-03-03T06:24:51;68.33;;;26.63;;
8540;SDS011;4308;51.294;6.590;2023-03-03T06:27:19;75.40;;;27.47;;
8540;SDS011;4308;51.294;6.590;2023-03-03T06:29:46;48.13;;;22.30;;
8540;SDS011;4308;51.294;6.590;2023-03-03T06:32:14;79.47;;;26.97;;
8540;SDS011;4308;51.294;6.590;2023-03-03T06:34:42;63.47;;;25.20;;
8540;SDS011;4308;51.294;6.590;2023-03-03T06:37:09;74.93;;;25.80;;
8540;SDS011;4308;51.294;6.590;2023-03-03T06:39:37;93.97;;;33.23;;
8540;SDS011;4308;51.294;6.590;2023-03-03T06:42:04;73.73;;;27.80;;
8540;SDS011;4308;51.294;6.590;2023-03-03T06:44:32;69.53;;;27.37;;
8540;SDS011;4308;51.294;6.590;2023-03-03T06:47:00;97.03;;;35.53;;
8540;SDS011;4308;51.294;6.590;2023-03-03T06:49:28;67.07;;;22.97;;
8540;SDS011;4308;51.294;6.590;2023-03-03T06:51:55;102.03;;;35.47;;
8540;SDS011;4308;51.294;6.590;2023-03-03T06:54:26;89.83;;;31.37;;
8540;SDS011;4308;51.294;6.590;2023-03-03T06:56:57;79.33;;;30.97;;
8540;SDS011;4308;51.294;6.590;2023-03-03T06:59:26;72.10;;;27.17;;
8540;SDS011;4308;51.294;6.590;2023-03-03T07:01:53;85.37;;;28.03;;
8540;SDS011;4308;51.294;6.590;2023-03-03T07:04:25;95.33;;;35.20;;
8540;SDS011;4308;51.294;6.590;2023-03-03T07:06:54;91.20;;;34.23;;
8540;SDS011;4308;51.294;6.590;2023-03-03T07:09:24;80.33;;;29.93;;
8540;SDS011;4308;51.294;6.590;2023-03-03T07:12:04;94.17;;;39.53;;
8540;SDS011;4308;51.294;6.590;2023-03-03T07:14:33;83.67;;;32.47;;
8540;SDS011;4308;51.294;6.590;2023-03-03T07:17:03;77.00;;;28.83;;
8540;SDS011;4308;51.294;6.590;2023-03-03T07:19:34;78.57;;;30.17;;
8540;SDS011;4308;51.294;6.590;2023-03-03T07:24:45;76.97;;;27.83;;
8540;SDS011;4308;51.294;6.590;2023-03-03T07:29:41;64.80;;;26.97;;
8540;SDS011;4308;51.294;6.590;2023-03-03T07:32:34;82.80;;;30.33;;
8540;SDS011;4308;51.294;6.590;2023-03-03T07:34:56;91.30;;;32.07;;
8540;SDS011;4308;51.294;6.590;2023-03-03T07:39:52;94.67;;;36.53;;
8540;SDS011;4308;51.294;6.590;2023-03-03T07:42:23;96.27;;;34.40;;
8540;SDS011;4308;51.294;6.590;2023-03-03T07:44:51;71.23;;;23.30;;
8540;SDS011;4308;51.294;6.590;2023-03-03T07:47:26;100.50;;;40.20;;
8540;SDS011;4308;51.294;6.590;2023-03-03T07:49:55;93.27;;;33.70;;
8540;SDS011;4308;51.294;6.590;2023-03-03T07:52:28;88.57;;;35.83;;
8540;SDS011;4308;51.294;6.590;2023-03-03T07:55:01;76.37;;;29.50;;
8540;SDS011;4308;51.294;6.590;2023-03-03T07:57:44;78.93;;;33.70;;
8540;SDS011;4308;51.294;6.590;2023-03-03T08:02:43;99.77;;;38.27;;
8540;SDS011;4308;51.294;6.590;2023-03-03T08:07:49;119.77;;;43.57;;
8540;SDS011;4308;51.294;6.590;2023-03-03T08:10:45;101.63;;;38.13;;
8540;SDS011;4308;51.294;6.590;2023-03-03T08:15:45;114.70;;;42.60;;
8540;SDS011;4308;51.294;6.590;2023-03-03T08:18:23;85.20;;;33.77;;
8540;SDS011;4308;51.294;6.590;2023-03-03T08:20:52;81.73;;;31.63;;
8540;SDS011;4308;51.294;6.590;2023-03-03T08:23:21;101.93;;;40.90;;
8540;SDS011;4308;51.294;6.590;2023-03-03T08:25:49;106.57;;;44.17;;
8540;SDS011;4308;51.294;6.590;2023-03-03T08:28:17;80.77;;;36.00;;
8540;SDS011;4308;51.294;6.590;2023-03-03T08:30:45;93.43;;;35.63;;
8540;SDS011;4308;51.294;6.590;2023-03-03T08:33:14;78.30;;;32.83;;
8540;SDS011;4308;51.294;6.590;2023-03-03T08:35:42;113.53;;;42.43;;
8540;SDS011;4308;51.294;6.590;2023-03-03T08:38:10;103.43;;;42.03;;
8540;SDS011;4308;51.294;6.590;2023-03-03T08:40:38;90.03;;;36.10;;
8540;SDS011;4308;51.294;6.590;2023-03-03T08:43:06;82.47;;;35.07;;
8540;SDS011;4308;51.294;6.590;2023-03-03T08:45:34;101.17;;;39.60;;
8540;SDS011;4308;51.294;6.590;2023-03-03T08:48:02;63.43;;;27.97;;
8540;SDS011;4308;51.294;6.590;2023-03-03T08:50:32;78.80;;;35.97;;
8540;SDS011;4308;51.294;6.590;2023-03-03T08:52:59;110.73;;;45.43;;
8540;SDS011;4308;51.294;6.590;2023-03-03T08:55:27;113.80;;;43.13;;
8540;SDS011;4308;51.294;6.590;2023-03-03T08:57:54;108.83;;;41.53;;
8540;SDS011;4308;51.294;6.590;2023-03-03T09:00:22;62.97;;;27.20;;
8540;SDS011;4308;51.294;6.590;2023-03-03T09:02:51;85.93;;;30.73;;
8540;SDS011;4308;51.294;6.590;2023-03-03T09:05:19;73.50;;;26.43;;
8540;SDS011;4308;51.294;6.590;2023-03-03T09:07:47;88.17;;;35.67;;
8540;SDS011;4308;51.294;6.590;2023-03-03T09:10:17;85.57;;;34.23;;
8540;SDS011;4308;51.294;6.590;2023-03-03T09:12:46;70.70;;;33.03;;
8540;SDS011;4308;51.294;6.590;2023-03-03T09:15:36;105.13;;;38.83;;
8540;SDS011;4308;51.294;6.590;2023-03-03T09:18:09;83.27;;;33.77;;
8540;SDS011;4308;51.294;6.590;2023-03-03T09:20:47;70.80;;;28.57;;
8540;SDS011;4308;51.294;6.590;2023-03-03T09:23:34;104.23;;;39.37;;
8540;SDS011;4308;51.294;6.590;2023-03-03T09:28:48;87.63;;;36.43;;
8540;SDS011;4308;51.294;6.590;2023-03-03T09:31:20;88.60;;;34.60;;
8540;SDS011;4308;51.294;6.590;2023-03-03T09:33:48;88.87;;;34.60;;
8540;SDS011;4308;51.294;6.590;2023-03-03T09:38:46;92.07;;;37.30;;
8540;SDS011;4308;51.294;6.590;2023-03-03T09:41:18;81.83;;;33.60;;
8540;SDS011;4308;51.294;6.590;2023-03-03T09:46:44;87.23;;;33.73;;
8540;SDS011;4308;51.294;6.590;2023-03-03T09:49:24;64.50;;;26.70;;
8540;SDS011;4308;51.294;6.590;2023-03-03T09:54:51;107.00;;;41.77;;
8540;SDS011;4308;51.294;6.590;2023-03-03T10:00:15;109.63;;;39.70;;
8540;SDS011;4308;51.294;6.590;2023-03-03T10:07:49;107.47;;;41.50;;
8540;SDS011;4308;51.294;6.590;2023-03-03T10:18:08;99.27;;;36.87;;
8540;SDS011;4308;51.294;6.590;2023-03-03T10:20:45;88.63;;;33.83;;
8540;SDS011;4308;51.294;6.590;2023-03-03T10:23:40;106.17;;;40.80;;
8540;SDS011;4308;51.294;6.590;2023-03-03T10:31:15;80.43;;;31.80;;
8540;SDS011;4308;51.294;6.590;2023-03-03T10:57:11;106.87;;;37.43;;
8540;SDS011;4308;51.294;6.590;2023-03-03T10:59:45;110.70;;;42.83;;
8540;SDS011;4308;51.294;6.590;2023-03-03T11:02:30;106.60;;;41.47;;
8540;SDS011;4308;51.294;6.590;2023-03-03T11:05:08;110.37;;;44.03;;
8540;SDS011;4308;51.294;6.590;2023-03-03T11:07:55;101.60;;;41.43;;
8540;SDS011;4308;51.294;6.590;2023-03-03T11:10:26;118.63;;;48.10;;
8540;SDS011;4308;51.294;6.590;2023-03-03T11:13:05;94.40;;;36.43;;
8540;SDS011;4308;51.294;6.590;2023-03-03T11:18:22;101.20;;;39.30;;
8540;SDS011;4308;51.294;6.590;2023-03-03T11:36:36;137.50;;;53.10;;
8540;SDS011;4308;51.294;6.590;2023-03-03T11:39:07;90.00;;;32.90;;
8540;SDS011;4308;51.294;6.590;2023-03-03T11:41:46;97.07;;;40.53;;
8540;SDS011;4308;51.294;6.590;2023-03-03T11:44:23;91.97;;;38.90;;
8540;SDS011;4308;51.294;6.590;2023-03-03T11:52:10;85.70;;;36.23;;
8540;SDS011;4308;51.294;6.590;2023-03-03T11:57:22;93.23;;;41.27;;
8540;SDS011;4308;51.294;6.590;2023-03-03T12:05:30;75.70;;;32.17;;
8540;SDS011;4308;51.294;6.590;2023-03-03T12:10:31;77.00;;;35.70;;
8540;SDS011;4308;51.294;6.590;2023-03-03T12:13:47;79.83;;;35.13;;
8540;SDS011;4308;51.294;6.590;2023-03-03T12:18:45;83.20;;;36.63;;
8540;SDS011;4308;51.294;6.590;2023-03-03T12:24:33;81.77;;;39.00;;
8540;SDS011;4308;51.294;6.590;2023-03-03T12:26:56;89.03;;;38.13;;
8540;SDS011;4308;51.294;6.590;2023-03-03T12:30:02;69.07;;;29.50;;
8540;SDS011;4308;51.294;6.590;2023-03-03T12:32:27;86.63;;;38.23;;
8540;SDS011;4308;51.294;6.590;2023-03-03T12:35:10;82.23;;;32.27;;
8540;SDS011;4308;51.294;6.590;2023-03-03T12:37:49;87.00;;;35.80;;
8540;SDS011;4308;51.294;6.590;2023-03-03T12:40:33;92.10;;;39.67;;
8540;SDS011;4308;51.294;6.590;2023-03-03T12:43:18;73.67;;;32.47;;
8540;SDS011;4308;51.294;6.590;2023-03-03T12:45:55;63.47;;;28.67;;
8540;SDS011;4308;51.294;6.590;2023-03-03T12:56:12;99.67;;;41.77;;
8540;SDS011;4308;51.294;6.590;2023-03-03T13:01:28;85.77;;;36.00;;
8540;SDS011;4308;51.294;6.590;2023-03-03T13:06:40;80.90;;;36.77;;
8540;SDS011;4308;51.294;6.590;2023-03-03T13:19:58;91.83;;;41.50;;
8540;SDS011;4308;51.294;6.590;2023-03-03T13:25:02;86.03;;;39.30;;
8540;SDS011;4308;51.294;6.590;2023-03-03T13:27:32;85.80;;;40.90;;
8540;SDS011;4308;51.294;6.590;2023-03-03T13:30:14;71.93;;;33.00;;
8540;SDS011;4308;51.294;6.590;2023-03-03T13:32:43;100.30;;;42.67;;
8540;SDS011;4308;51.294;6.590;2023-03-03T13:35:17;103.47;;;45.03;;
8540;SDS011;4308;51.294;6.590;2023-03-03T13:37:52;86.77;;;35.60;;
8540;SDS011;4308;51.294;6.590;2023-03-03T13:40:22;90.80;;;40.23;;
8540;SDS011;4308;51.294;6.590;2023-03-03T13:45:22;80.90;;;35.90;;
8540;SDS011;4308;51.294;6.590;2023-03-03T14:01:16;66.20;;;30.60;;
8540;SDS011;4308;51.294;6.590;2023-03-03T14:03:52;63.03;;;31.40;;
8540;SDS011;4308;51.294;6.590;2023-03-03T14:06:24;55.33;;;26.43;;
8540;SDS011;4308;51.294;6.590;2023-03-03T14:14:12;54.77;;;26.63;;
8540;SDS011;4308;51.294;6.590;2023-03-03T14:19:14;69.43;;;28.37;;
8540;SDS011;4308;51.294;6.590;2023-03-03T14:24:17;67.17;;;30.67;;
8540;SDS011;4308;51.294;6.590;2023-03-03T14:26:47;65.77;;;31.37;;
8540;SDS011;4308;51.294;6.590;2023-03-03T14:31:48;54.43;;;23.20;;
8540;SDS011;4308;51.294;6.590;2023-03-03T14:36:50;62.37;;;28.77;;
8540;SDS011;4308;51.294;6.590;2023-03-03T14:39:34;55.30;;;28.17;;
8540;SDS011;4308;51.294;6.590;2023-03-03T14:42:13;60.50;;;28.77;;
8540;SDS011;4308;51.294;6.590;2023-03-03T14:47:16;55.63;;;27.93;;
8540;SDS011;4308;51.294;6.590;2023-03-03T14:49:45;62.17;;;27.60;;
8540;SDS011;4308;51.294;6.590;2023-03-03T14:54:53;56.80;;;27.73;;
8540;SDS011;4308;51.294;6.590;2023-03-03T14:57:22;46.40;;;22.60;;
8540;SDS011;4308;51.294;6.590;2023-03-03T15:03:02;52.10;;;24.47;;
8540;SDS011;4308;51.294;6.590;2023-03-03T15:05:31;45.77;;;23.33;;
8540;SDS011;4308;51.294;6.590;2023-03-03T15:18:19;41.13;;;21.73;;
8540;SDS011;4308;51.294;6.590;2023-03-03T15:20:49;42.33;;;20.30;;
8540;SDS011;4308;51.294;6.590;2023-03-03T15:39:02;37.63;;;18.23;;
8540;SDS011;4308;51.294;6.590;2023-03-03T15:41:39;39.73;;;20.13;;
8540;SDS011;4308;51.294;6.590;2023-03-03T15:54:33;32.83;;;16.33;;
8540;SDS011;4308;51.294;6.590;2023-03-03T15:57:28;29.07;;;13.67;;
8540;SDS011;4308;51.294;6.590;2023-03-03T16:02:39;28.23;;;13.03;;
8540;SDS011;4308;51.294;6.590;2023-03-03T16:05:19;25.95;;;12.55;;
8540;SDS011;4308;51.294;6.590;2023-03-03T16:13:03;25.27;;;12.07;;
8540;SDS011;4308;51.294;6.590;2023-03-03T16:15:46;25.67;;;11.37;;
8540;SDS011;4308;51.294;6.590;2023-03-03T16:18:31;28.30;;;12.30;;
8540;SDS011;4308;51.294;6.590;2023-03-03T16:23:46;27.00;;;12.27;;
8540;SDS011;4308;51.294;6.590;2023-03-03T16:34:33;21.57;;;11.20;;
8540;SDS011;4308;51.294;6.590;2023-03-03T16:39:58;25.17;;;12.33;;
8540;SDS011;4308;51.294;6.590;2023-03-03T16:42:29;23.70;;;11.50;;
8540;SDS011;4308;51.294;6.590;2023-03-03T16:52:58;25.20;;;11.97;;
8540;SDS011;4308;51.294;6.590;2023-03-03T16:55:29;26.27;;;12.60;;
8540;SDS011;4308;51.294;6.590;2023-03-03T17:00:29;23.40;;;12.67;;
8540;SDS011;4308;51.294;6.590;2023-03-03T17:05:35;22.67;;;12.30;;
8540;SDS011;4308;51.294;6.590;2023-03-03T17:13:55;24.93;;;13.13;;
8540;SDS011;4308;51.294;6.590;2023-03-03T17:16:29;29.33;;;12.23;;
8540;SDS011;4308;51.294;6.590;2023-03-03T17:19:25;25.87;;;12.87;;
8540;SDS011;4308;51.294;6.590;2023-03-03T17:29:38;26.13;;;13.30;;
8540;SDS011;4308;51.294;6.590;2023-03-03T17:32:19;26.87;;;13.30;;
8540;SDS011;4308;51.294;6.590;2023-03-03T17:45:20;29.03;;;15.53;;
8540;SDS011;4308;51.294;6.590;2023-03-03T17:53:18;27.70;;;14.53;;
8540;SDS011;4308;51.294;6.590;2023-03-03T17:58:40;26.67;;;14.63;;
8540;SDS011;4308;51.294;6.590;2023-03-03T18:06:37;31.37;;;16.77;;
8540;SDS011;4308;51.294;6.590;2023-03-03T18:14:36;37.87;;;17.43;;
8540;SDS011;4308;51.294;6.590;2023-03-03T18:22:42;32.33;;;15.87;;
8540;SDS011;4308;51.294;6.590;2023-03-03T18:27:42;40.70;;;19.17;;
8540;SDS011;4308;51.294;6.590;2023-03-03T18:32:47;65.93;;;26.40;;
8540;SDS011;4308;51.294;6.590;2023-03-03T18:40:52;39.57;;;20.43;;
8540;SDS011;4308;51.294;6.590;2023-03-03T18:48:53;36.73;;;18.53;;
8540;SDS011;4308;51.294;6.590;2023-03-03T18:51:58;41.60;;;18.43;;
8540;SDS011;4308;51.294;6.590;2023-03-03T19:00:08;33.47;;;16.73;;
8540;SDS011;4308;51.294;6.590;2023-03-03T19:02:11;31.50;;;16.80;;
8540;SDS011;4308;51.294;6.590;2023-03-03T19:12:41;32.37;;;16.40;;
8540;SDS011;4308;51.294;6.590;2023-03-03T19:15:55;37.10;;;18.57;;
8540;SDS011;4308;51.294;6.590;2023-03-03T19:17:57;34.27;;;17.87;;
8540;SDS011;4308;51.294;6.590;2023-03-03T19:20:36;29.33;;;17.33;;
8540;SDS011;4308;51.294;6.590;2023-03-03T19:23:05;32.63;;;17.20;;
8540;SDS011;4308;51.294;6.590;2023-03-03T19:25:33;32.97;;;17.00;;
8540;SDS011;4308;51.294;6.590;2023-03-03T19:35:58;33.07;;;18.47;;
8540;SDS011;4308;51.294;6.590;2023-03-03T19:51:40;28.07;;;15.00;;
8540;SDS011;4308;51.294;6.590;2023-03-03T19:56:43;26.03;;;12.00;;
8540;SDS011;4308;51.294;6.590;2023-03-03T19:59:32;23.40;;;13.40;;
8540;SDS011;4308;51.294;6.590;2023-03-03T20:12:27;31.33;;;15.10;;
8540;SDS011;4308;51.294;6.590;2023-03-03T20:15:06;35.50;;;15.47;;
8540;SDS011;4308;51.294;6.590;2023-03-03T20:17:39;30.33;;;15.97;;
8540;SDS011;4308;51.294;6.590;2023-03-03T20:25:43;38.20;;;19.83;;
8540;SDS011;4308;51.294;6.590;2023-03-03T20:30:49;32.80;;;18.73;;
8540;SDS011;4308;51.294;6.590;2023-03-03T20:33:23;30.87;;;16.37;;
8540;SDS011;4308;51.294;6.590;2023-03-03T20:46:27;25.57;;;12.90;;
8540;SDS011;4308;51.294;6.590;2023-03-03T20:51:50;21.80;;;11.50;;
8540;SDS011;4308;51.294;6.590;2023-03-03T20:54:25;24.70;;;13.20;;
8540;SDS011;4308;51.294;6.590;2023-03-03T20:59:36;23.57;;;12.23;;
8540;SDS011;4308;51.294;6.590;2023-03-03T21:04:33;24.00;;;12.67;;
8540;SDS011;4308;51.294;6.590;2023-03-03T21:07:02;24.20;;;13.10;;
8540;SDS011;4308;51.294;6.590;2023-03-03T21:09:30;27.87;;;13.80;;
8540;SDS011;4308;51.294;6.590;2023-03-03T21:11:59;26.07;;;13.73;;
8540;SDS011;4308;51.294;6.590;2023-03-03T21:14:28;24.07;;;13.33;;
8540;SDS011;4308;51.294;6.590;2023-03-03T21:16:57;21.77;;;13.37;;
8540;SDS011;4308;51.294;6.590;2023-03-03T21:19:26;25.80;;;14.83;;
8540;SDS011;4308;51.294;6.590;2023-03-03T21:21:54;25.93;;;14.10;;
8540;SDS011;4308;51.294;6.590;2023-03-03T21:24:44;26.07;;;14.20;;
8540;SDS011;4308;51.294;6.590;2023-03-03T21:27:24;25.90;;;13.70;;
8540;SDS011;4308;51.294;6.590;2023-03-03T21:32:36;27.43;;;14.73;;
8540;SDS011;4308;51.294;6.590;2023-03-03T21:35:05;26.73;;;13.77;;
8540;SDS011;4308;51.294;6.590;2023-03-03T21:37:49;25.93;;;13.33;;
8540;SDS011;4308;51.294;6.590;2023-03-03T21:40:19;24.53;;;14.10;;
8540;SDS011;4308;51.294;6.590;2023-03-03T21:42:47;24.20;;;13.47;;
8540;SDS011;4308;51.294;6.590;2023-03-03T21:45:14;31.83;;;15.17;;
8540;SDS011;4308;51.294;6.590;2023-03-03T21:47:42;28.07;;;15.53;;
8540;SDS011;4308;51.294;6.590;2023-03-03T21:50:09;26.73;;;15.03;;
8540;SDS011;4308;51.294;6.590;2023-03-03T21:52:37;29.00;;;15.73;;
8540;SDS011;4308;51.294;6.590;2023-03-03T21:55:05;34.93;;;17.07;;
8540;SDS011;4308;51.294;6.590;2023-03-03T21:57:33;28.27;;;16.43;;
8540;SDS011;4308;51.294;6.590;2023-03-03T22:00:00;33.10;;;15.93;;